Flight Track Log - Related Links

Times and Time Zones

All times are in EDT time to prevent confusion due to time zone crossing. See the ACA907 flight status page for this flight to view local times or setup timezone preferences in your user account.

Time Position Orientation Groundspeed Altitude Reporting Facility
EDT Latitude Longitude Course Direction KTS MPH feet Rate Location/Type
Sat 02:37:26 PM 28.4167 -81.3167 60° Northeast 171 197 700  Level Orlando TRACON
Sat 02:38:20 PM 28.3833 -81.2833 139° Southeast 182 209 2,800 1,806 Climbing Orlando TRACON
Sat 02:39:09 PM 28.3667 -81.2333 111° Southeast 226 260 3,800 1,486 Climbing Orlando TRACON
Sat 02:40:00 PM 28.1786 -80.7880 114° Southeast  Level FlightAware Approximate
Sat 02:40:09 PM 28.3833 -81.1500 77° East 299 344 5,500  Level Orlando TRACON
Sat 02:41:00 PM 28.1191 -80.6714 120° Southeast  Level FlightAware Approximate
Sat 02:41:15 PM 28.4167 -81.0667 66° East 301 346 8,500  Level Orlando TRACON
Sat 02:42:00 PM 28.1489 -80.5522 60° Northeast  Level FlightAware Approximate
Sat 02:43:34 PM 28.4706 -80.8475 74° East 329 379 14,100  Level Miami Center
Sat 02:45:00 PM 28.6557 -80.8352 North  Level Estimated
Sat 02:47:34 PM 28.5761 -80.4094 North 358 412 21,400  Level Miami Center
Sat 02:48:34 PM 28.5894 -80.2844 83° East 380 437 22,900 1,100 Climbing Miami Center
Sat 02:49:34 PM 28.5983 -80.1689 85° East 400 460 23,600 500 Climbing Miami Center
Sat 02:50:34 PM 28.6119 -80.0322 83° East 420 483 23,900 200 Climbing Miami Center
Sat 02:51:34 PM 28.6236 -79.8836 85° East 457 526 24,000 500 Climbing Miami Center
Sat 02:52:00 PM 29.5599 -80.7742 North  Level Estimated
Sat 02:52:34 PM 28.6372 -79.7278 84° East 473 544 24,900  Level Miami Center
Sat 02:53:34 PM 28.6919 -79.5919 65° Northeast 469 540 26,300 1,250 Climbing Miami Center
Sat 02:54:34 PM 28.8019 -79.5094 33° Northeast 447 514 27,400 940 Climbing Miami Center
Sat 02:56:00 PM 28.9811 -79.5107 30° Northeast  Level Estimated
Sat 02:58:34 PM 29.2722 -79.2258 31° Northeast 468 539 31,000  Level Miami Center
Sat 02:59:34 PM 29.3881 -79.1592 27° Northeast 463 533 31,000  Level Miami Center
Sat 03:00:34 PM 29.5061 -79.0903 27° Northeast 458 527 31,000  Level Miami Center
Sat 03:02:00 PM 29.6648 -78.9946 28° Northeast  Level FlightAware Approximate
Sat 03:02:39 PM 29.7583 -78.9311 28° Northeast 461 531 31,000  Level Jacksonville Center
Sat 03:03:00 PM 29.8563 -79.5167 31° Northeast  Level Estimated
Sat 03:03:39 PM 29.8708 -78.8569 30° Northeast 460 529 31,000  Level Jacksonville Center
Sat 03:04:40 PM 29.9897 -78.7872 27° Northeast 462 532 30,900 -50 Descending Jacksonville Center
Sat 03:05:40 PM 30.1108 -78.7244 24° Northeast 466 536 30,900 50 Level Jacksonville Center
Sat 03:06:40 PM 30.2375 -78.7117 North 463 533 31,000 1,059 Climbing Jacksonville Center
Sat 03:07:39 PM 30.3503 -78.7117 360° North 463 533 33,000 1,000 Climbing Jacksonville Center
Sat 03:08:40 PM 30.4803 -78.7253 355° North 470 541 33,000  Level Jacksonville Center
Sat 03:09:40 PM 30.6103 -78.7414 354° North 464 534 33,000  Level Jacksonville Center
Sat 03:10:39 PM 30.7464 -78.7594 353° North 472 543 33,000 250 Level Jacksonville Center
Sat 03:11:40 PM 30.8764 -78.7781 353° North 477 549 33,500 850 Climbing Jacksonville Center
Sat 03:12:39 PM 31.0064 -78.7942 354° North 477 549 34,700 750 Climbing Jacksonville Center
Sat 03:13:40 PM 31.1467 -78.8100 354° North 459 528 35,000 150 Climbing Jacksonville Center
Sat 03:14:39 PM 31.2744 -78.8239 355° North 461 531 35,000  Level Jacksonville Center
Sat 03:15:39 PM 31.4064 -78.8303 358° North 467 537 35,000  Level Jacksonville Center
Sat 03:16:40 PM 31.5339 -78.8369 357° North 465 535 35,000  Level Jacksonville Center
Sat 03:17:39 PM 31.6633 -78.8361 360° North 457 526 35,000 -50 Level Jacksonville Center
Sat 03:18:39 PM 31.7947 -78.8328 North 462 532 34,900 -50 Descending Jacksonville Center
Sat 03:19:39 PM 31.9258 -78.8269 North 467 537 34,900 50 Level Jacksonville Center
Sat 03:20:40 PM 32.0531 -78.8239 North 467 537 35,000 50 Climbing Jacksonville Center
Sat 03:21:40 PM 32.1833 -78.7861 14° North 462 532 35,000 -50 Level Jacksonville Center
Sat 03:22:40 PM 32.3119 -78.7533 12° North 467 537 34,900  Descending Jacksonville Center
Sat 03:23:40 PM 32.4444 -78.7253 10° North 467 537 35,000  Climbing Jacksonville Center
Sat 03:24:39 PM 32.5711 -78.7044 North 467 537 34,900 -50 Descending Jacksonville Center
Sat 03:25:39 PM 32.7039 -78.6761 10° North 467 537 34,900 50 Level Jacksonville Center
Sat 03:26:40 PM 32.8364 -78.6503 North 472 543 35,000 50 Climbing Jacksonville Center
Sat 03:27:40 PM 32.9650 -78.6267 North 472 543 35,000 -50 Level Jacksonville Center
Sat 03:28:40 PM 33.0978 -78.6056 North 472 543 34,900 -50 Descending Jacksonville Center
Sat 03:29:40 PM 33.2311 -78.5942 North 472 543 34,900 50 Level Jacksonville Center
Sat 03:30:40 PM 33.3686 -78.5875 North 478 550 35,000 50 Climbing Jacksonville Center
Sat 03:31:40 PM 33.5019 -78.5786 North 478 550 35,000 -50 Level Jacksonville Center
Sat 03:32:39 PM 33.6369 -78.5644 North 473 544 34,900 -50 Descending Jacksonville Center
Sat 03:33:40 PM 33.7683 -78.5581 North 478 550 34,900 99 Level Jacksonville Center
Sat 03:34:40 PM 33.9039 -78.5614 359° North 478 550 35,100 672 Climbing Jacksonville Center
Sat 03:35:36 PM 34.0097 -78.5631 359° North 474 545 36,200 983 Climbing Washington Center
Sat 03:36:36 PM 34.1433 -78.5653 359° North 474 545 37,000 353 Climbing Washington Center
Sat 03:37:35 PM 34.2747 -78.5675 359° North 474 545 36,900 -50 Descending Washington Center
Sat 03:38:36 PM 34.4081 -78.5697 359° North 479 551 36,900 51 Level Washington Center
Sat 03:39:33 PM 34.5586 -78.5628 North 479 551 37,000 51 Climbing Washington Center
Sat 03:40:34 PM 34.6919 -78.5625 360° North 479 551 37,000  Level Washington Center
Sat 03:41:34 PM 34.8108 -78.5644 359° North 479 551 37,000  Level Washington Center
Sat 03:42:35 PM 34.9467 -78.5642 360° North 473 544 37,000  Level Washington Center
Sat 03:43:36 PM 35.0800 -78.5642 360° North 478 550 37,000  Level Washington Center
Sat 03:44:36 PM 35.2158 -78.5639 360° North 478 550 37,000  Level Washington Center
Sat 03:45:34 PM 35.3556 -78.5589 North 478 550 37,000  Level Washington Center
Sat 03:46:35 PM 35.5039 -78.5594 360° North 490 564 37,000  Level Washington Center
Sat 03:47:34 PM 35.6411 -78.5694 357° North 505 581 37,000  Level Washington Center
Sat 03:48:34 PM 35.7767 -78.5722 359° North 500 575 37,000  Level Washington Center
Sat 03:49:35 PM 35.9122 -78.5747 359° North 487 560 37,000  Level Washington Center
Sat 03:50:36 PM 36.0500 -78.5772 359° North 482 555 37,000  Level Washington Center
Sat 03:51:36 PM 36.1836 -78.5772 360° North 477 549 37,000  Level Washington Center
Sat 03:52:34 PM 36.3192 -78.5797 359° North 477 549 37,000  Level Washington Center
Sat 03:53:35 PM 36.4525 -78.5847 358° North 477 549 37,000  Level Washington Center
Sat 03:54:36 PM 36.5922 -78.5850 360° North 477 549 37,000  Level Washington Center
Sat 03:55:34 PM 36.7133 -78.5819 North 477 549 37,000  Level Washington Center
Sat 03:56:35 PM 36.8656 -78.5828 360° North 482 555 37,000  Level Washington Center
Sat 03:57:36 PM 37.0033 -78.5853 359° North 487 560 37,000  Level Washington Center
Sat 03:58:34 PM 37.1453 -78.5858 360° North 492 566 37,000  Level Washington Center
Sat 03:59:34 PM 37.2725 -78.5856 360° North 498 573 37,000  Level Washington Center
Sat 04:00:36 PM 37.4142 -78.5858 360° North 498 573 37,000  Level Washington Center
Sat 04:01:36 PM 37.5539 -78.5886 359° North 498 573 37,000  Level Washington Center
Sat 04:02:35 PM 37.7083 -78.5922 359° North 498 573 37,000  Level Washington Center
Sat 04:03:36 PM 37.8458 -78.5922 360° North 498 573 37,000  Level Washington Center
Sat 04:04:34 PM 37.9856 -78.5953 359° North 498 573 37,000  Level Washington Center
Sat 04:05:35 PM 38.1086 -78.5950 360° North 498 573 37,000  Level Washington Center
Sat 04:06:36 PM 38.2461 -78.5978 359° North 498 573 37,000  Level Washington Center
Sat 04:07:34 PM 38.3797 -78.5978 360° North 485 558 37,000  Level Washington Center
Sat 04:08:35 PM 38.5194 -78.5983 360° North 485 558 37,000  Level Washington Center
Sat 04:09:35 PM 38.6589 -78.6014 359° North 495 570 37,000  Level Washington Center
Sat 04:10:36 PM 38.7986 -78.6017 360° North 495 570 37,000  Level Washington Center
Sat 04:11:36 PM 38.9383 -78.6047 359° North 495 570 37,000  Level Washington Center
Sat 04:12:34 PM 39.0800 -78.6078 359° North 495 570 37,000  Level Washington Center
Sat 04:13:35 PM 39.2342 -78.6061 360° North 495 570 37,000  Level Washington Center
Sat 04:15:57 PM 39.5728 -78.6117 359° North 521 600 37,000  Level Cleveland Center
Sat 04:16:57 PM 39.7144 -78.6131 360° North 500 575 37,000  Level Cleveland Center
Sat 04:17:57 PM 39.8353 -78.6122 360° North 499 574 37,000  Level Cleveland Center
Sat 04:18:57 PM 39.9750 -78.6136 360° North 494 568 37,000  Level Cleveland Center
Sat 04:19:57 PM 40.1169 -78.6147 360° North 494 568 37,000  Level Cleveland Center
Sat 04:20:57 PM 40.2586 -78.6161 360° North 500 575 37,000  Level Cleveland Center
Sat 04:21:57 PM 40.4006 -78.6172 360° North 500 575 37,000  Level Cleveland Center
Sat 04:22:57 PM 40.5403 -78.6186 360° North 495 570 37,000  Level Cleveland Center
Sat 04:23:57 PM 40.6797 -78.6200 360° North 495 570 37,000  Level Cleveland Center
Sat 04:24:57 PM 40.8175 -78.6214 360° North 495 570 37,000 -400 Level Cleveland Center
Sat 04:25:57 PM 40.9719 -78.6250 359° North 500 575 36,200 -500 Descending Cleveland Center
Sat 04:26:57 PM 41.1094 -78.6292 359° North 495 570 36,000 -100 Descending Cleveland Center
Sat 04:27:57 PM 41.2514 -78.6306 360° North 495 570 36,000  Level Cleveland Center
Sat 04:28:57 PM 41.3617 -78.6300 360° North 495 570 36,000  Level Cleveland Center
Sat 04:29:57 PM 41.5097 -78.6311 360° North 495 570 36,000  Level Cleveland Center
Sat 04:30:57 PM 41.6453 -78.6325 360° North 490 564 36,000 -100 Level Cleveland Center
Sat 04:31:57 PM 41.7831 -78.6339 360° North 490 564 35,800 -750 Descending Cleveland Center
Sat 04:32:57 PM 41.9186 -78.6408 358° North 490 564 34,500 -1,400 Descending Cleveland Center
Sat 04:33:57 PM 42.0542 -78.6397 360° North 490 564 33,000 -1,200 Descending Cleveland Center
Sat 04:34:57 PM 42.1853 -78.6411 360° North 479 551 32,100 -500 Descending Cleveland Center
Sat 04:35:57 PM 42.3189 -78.6428 359° North 479 551 32,000 -400 Descending Cleveland Center
Sat 04:36:57 PM 42.4522 -78.6442 360° North 479 551 31,300 -850 Descending Cleveland Center
Sat 04:37:57 PM 42.5836 -78.6458 359° North 479 551 30,300 -650 Descending Cleveland Center
Sat 04:38:57 PM 42.7275 -78.6500 359° North 473 544 30,000 -950 Descending Cleveland Center
Sat 04:39:57 PM 42.8553 -78.6914 347° North 467 537 28,400 -2,000 Descending Cleveland Center
Sat 04:40:57 PM 42.9672 -78.7731 332° Northwest 461 531 26,000 -2,215 Descending Cleveland Center
Sat 04:42:26 PM 43.0667 -78.9000 317° Northwest 370 426 22,900 -2,255 Descending Toronto Center
Sat 04:43:26 PM 43.1167 -79.0000 304° West 350 403 20,400 -3,200 Descending Toronto Center
Sat 04:44:26 PM 43.1833 -79.1000 312° West 350 403 16,500 -2,900 Descending Toronto Center
Sat 04:45:26 PM 43.2333 -79.2167 300° West 350 403 14,600 -1,650 Descending Toronto Center
Sat 04:46:26 PM 43.2833 -79.3167 305° West 330 380 13,200 -1,400 Descending Toronto Center
Sat 04:47:26 PM 43.3667 -79.3500 344° North 300 345 11,800 -1,600 Descending Toronto Center
Sat 04:48:26 PM 43.4333 -79.4000 331° Northwest 300 345 10,000 -1,550 Descending Toronto Center
Sat 04:49:26 PM 43.5167 -79.4333 344° North 290 334 8,700 -1,050 Descending Toronto Center
Sat 04:50:26 PM 43.5667 -79.5167 310° West 280 322 7,900 -1,200 Descending Toronto Center
Sat 04:51:26 PM 43.5500 -79.5833 251° West 240 276 6,300 -1,400 Descending Toronto Center
Sat 04:52:26 PM 43.5000 -79.6500 224° Southwest 240 276 5,100 -1,000 Descending Toronto Center
Sat 04:53:26 PM 43.4500 -79.7000 216° Southwest 220 253 4,300 -550 Descending Toronto Center
Sat 04:54:26 PM 43.4167 -79.7667 235° Southwest 220 253 4,000 -150 Descending Toronto Center
Sat 04:55:26 PM 43.4167 -79.8333 270° West 220 253 4,000 -300 Level Toronto Center
Sat 04:56:26 PM 43.4833 -79.8667 340° North 210 242 3,400 -500 Descending Toronto Center
Sat 04:57:26 PM 43.5333 -79.8333 26° Northeast 220 253 3,000 -250 Descending Toronto Center
Sat 04:58:26 PM 43.5833 -79.7667 44° Northeast 210 242 2,900 -100 Descending Toronto Center

Login

Don't have an account? Register now (free) for customized features, flight alerts, and more!